Time;durP1;ratioP1;P1;durP2;ratioP2;P2;SDS_P1;SDS_P2;PMS_P1;PMS_P2;Temp;Humidity;BMP_temperature;BMP_pressure;BME280_temperature;BME280_humidity;BME280_pressure;Samples;Min_cycle;Max_cycle;Signal;HPM_P1;HPM_P2
2022/08/15 00:02:43;;;;;;;4.03;1.50;;;;;;;;;;5031306;28;20049;-80
2022/08/15 00:05:33;;;;;;;4.38;1.70;;;;;;;;;;5029543;28;20515;-80
2022/08/15 00:08:20;;;;;;;3.22;1.73;;;;;;;;;;5029523;28;20045;-80
2022/08/15 00:11:12;;;;;;;2.83;1.50;;;;;;;;;;5015630;28;20042;-80
2022/08/15 00:14:10;;;;;;;2.45;1.40;;;;;;;;;;5029664;28;20455;-80
2022/08/15 00:16:55;;;;;;;4.55;1.73;;;;;;;;;;5017382;28;20056;-80
2022/08/15 00:19:44;;;;;;;3.35;1.67;;;;;;;;;;5031020;28;20034;-80
2022/08/15 00:22:30;;;;;;;4.50;1.80;;;;;;;;;;5018710;28;20056;-82
2022/08/15 00:25:16;;;;;;;4.40;1.25;;;;;;;;;;5030400;28;20041;-81
2022/08/15 00:28:02;;;;;;;4.95;1.75;;;;;;;;;;5030281;28;20049;-81
2022/08/15 00:30:48;;;;;;;4.40;1.85;;;;;;;;;;5004136;28;20049;-81
2022/08/15 00:33:34;;;;;;;3.08;1.55;;;;;;;;;;5029183;28;20034;-81
2022/08/15 00:36:20;;;;;;;3.08;1.67;;;;;;;;;;5030255;28;20033;-81
2022/08/15 00:39:06;;;;;;;4.03;2.00;;;;;;;;;;5029222;28;20481;-81
2022/08/15 00:41:52;;;;;;;6.00;1.83;;;;;;;;;;5028940;28;20423;-81
2022/08/15 00:44:41;;;;;;;3.05;1.42;;;;;;;;;;5029012;28;20737;-81
2022/08/15 00:47:27;;;;;;;4.05;1.33;;;;;;;;;;5028845;28;20083;-81
2022/08/15 00:50:13;;;;;;;3.03;1.55;;;;;;;;;;5015365;28;20037;-81
2022/08/15 00:53:05;;;;;;;4.88;1.83;;;;;;;;;;5004239;28;20045;-81
2022/08/15 00:55:50;;;;;;;5.15;1.60;;;;;;;;;;5018140;28;20202;-81
2022/08/15 00:58:36;;;;;;;4.00;1.55;;;;;;;;;;5028957;28;20666;-81
2022/08/15 01:01:22;;;;;;;3.95;1.55;;;;;;;;;;5028787;28;20052;-81
2022/08/15 01:04:11;;;;;;;3.90;1.75;;;;;;;;;;5004409;28;20038;-81
2022/08/15 01:06:58;;;;;;;5.00;1.67;;;;;;;;;;5018197;28;20047;-81
2022/08/15 01:09:44;;;;;;;3.50;1.90;;;;;;;;;;5015074;28;20037;-81
2022/08/15 01:12:30;;;;;;;2.92;1.52;;;;;;;;;;5028687;28;20091;-81
2022/08/15 01:15:16;;;;;;;5.20;1.90;;;;;;;;;;5030335;28;20042;-81
2022/08/15 01:18:01;;;;;;;3.22;1.70;;;;;;;;;;5015664;28;20565;-81
2022/08/15 01:20:48;;;;;;;2.92;1.95;;;;;;;;;;5003905;28;20124;-81
2022/08/15 01:23:53;;;;;;;3.55;2.28;;;;;;;;;;5015675;28;20097;-81
2022/08/15 01:26:40;;;;;;;4.05;1.95;;;;;;;;;;5028797;28;20061;-81
2022/08/15 01:29:27;;;;;;;5.43;2.03;;;;;;;;;;5003664;28;20041;-83
2022/08/15 01:32:13;;;;;;;4.38;1.95;;;;;;;;;;5029581;28;20050;-81
2022/08/15 01:35:02;;;;;;;2.80;1.80;;;;;;;;;;5028496;28;20030;-80
2022/08/15 01:37:50;;;;;;;2.65;1.45;;;;;;;;;;5015959;28;20041;-80
2022/08/15 01:40:48;;;;;;;3.17;1.92;;;;;;;;;;5031098;28;20041;-80
2022/08/15 01:43:39;;;;;;;4.13;1.88;;;;;;;;;;5019218;28;20117;-80
2022/08/15 01:46:26;;;;;;;2.97;1.63;;;;;;;;;;5029442;28;20076;-80
2022/08/15 01:49:15;;;;;;;6.13;1.92;;;;;;;;;;5029404;28;20087;-81
2022/08/15 01:52:02;;;;;;;6.13;2.08;;;;;;;;;;5029302;28;20041;-80
2022/08/15 01:54:48;;;;;;;4.63;2.10;;;;;;;;;;5029236;28;20128;-80
2022/08/15 01:57:34;;;;;;;4.40;1.83;;;;;;;;;;5028103;28;20049;-80
2022/08/15 02:00:20;;;;;;;5.15;1.77;;;;;;;;;;5030790;28;20061;-80
2022/08/15 02:03:05;;;;;;;4.10;1.77;;;;;;;;;;5031711;28;20044;-80
2022/08/15 02:05:51;;;;;;;4.20;2.25;;;;;;;;;;5019673;28;20048;-79
2022/08/15 02:08:37;;;;;;;3.72;1.95;;;;;;;;;;5019442;28;20083;-80
2022/08/15 02:11:25;;;;;;;6.00;1.98;;;;;;;;;;5020278;28;20105;-80
2022/08/15 02:14:11;;;;;;;4.22;2.08;;;;;;;;;;5006766;28;20052;-80
2022/08/15 02:16:57;;;;;;;4.45;1.92;;;;;;;;;;5031595;28;20087;-80
2022/08/15 02:19:44;;;;;;;3.28;1.80;;;;;;;;;;5031475;28;20073;-80
2022/08/15 02:22:30;;;;;;;5.25;2.35;;;;;;;;;;5018295;28;20037;-80
2022/08/15 02:25:16;;;;;;;4.28;2.28;;;;;;;;;;5032932;28;20045;-80
2022/08/15 02:28:02;;;;;;;3.60;1.67;;;;;;;;;;5033019;28;20045;-80
2022/08/15 02:30:48;;;;;;;4.07;2.33;;;;;;;;;;5006153;28;20073;-80
2022/08/15 02:33:34;;;;;;;4.15;2.00;;;;;;;;;;5020501;28;20029;-79
2022/08/15 02:36:20;;;;;;;4.60;2.13;;;;;;;;;;5031042;28;20123;-79
2022/08/15 02:39:08;;;;;;;3.80;1.63;;;;;;;;;;5033990;28;20040;-79
2022/08/15 02:41:54;;;;;;;3.10;1.80;;;;;;;;;;5033920;28;20095;-79
2022/08/15 02:44:41;;;;;;;5.18;1.70;;;;;;;;;;5031076;28;20041;-79
2022/08/15 02:47:27;;;;;;;3.05;1.50;;;;;;;;;;5031906;28;20423;-79
2022/08/15 02:50:15;;;;;;;4.55;1.70;;;;;;;;;;5033700;28;20041;-79
2022/08/15 02:53:10;;;;;;;3.00;1.55;;;;;;;;;;5033932;28;20060;-79
2022/08/15 02:55:59;;;;;;;4.05;1.70;;;;;;;;;;5030557;28;20069;-79
2022/08/15 02:58:45;;;;;;;4.03;1.70;;;;;;;;;;5031041;28;20479;-79
2022/08/15 03:01:33;;;;;;;3.83;1.83;;;;;;;;;;5030971;28;20097;-80
2022/08/15 03:04:20;;;;;;;4.13;1.88;;;;;;;;;;5019348;28;20045;-79
2022/08/15 03:07:05;;;;;;;3.15;1.65;;;;;;;;;;5005895;28;20077;-79
2022/08/15 03:09:51;;;;;;;3.60;1.70;;;;;;;;;;5030876;28;20463;-79
2022/08/15 03:12:55;;;;;;;6.50;1.55;;;;;;;;;;5031469;28;20530;-79
2022/08/15 03:15:48;;;;;;;4.80;1.70;;;;;;;;;;5030676;28;20042;-79
2022/08/15 03:18:34;;;;;;;3.63;1.70;;;;;;;;;;5019083;28;20053;-80
2022/08/15 03:21:20;;;;;;;4.65;2.33;;;;;;;;;;5029967;28;20155;-79
2022/08/15 03:24:06;;;;;;;3.50;2.17;;;;;;;;;;5017181;28;20748;-79
2022/08/15 03:26:55;;;;;;;2.00;1.33;;;;;;;;;;5031494;28;20496;-79
2022/08/15 03:29:40;;;;;;;4.20;2.10;;;;;;;;;;5031291;28;20038;-79
2022/08/15 03:32:26;;;;;;;5.45;1.70;;;;;;;;;;5018096;28;20045;-79
2022/08/15 03:35:12;;;;;;;4.45;1.35;;;;;;;;;;5029912;28;20099;-79
2022/08/15 03:37:58;;;;;;;5.38;2.13;;;;;;;;;;5029925;28;20124;-79
2022/08/15 03:40:48;;;;;;;4.15;1.80;;;;;;;;;;5029791;28;20522;-80
2022/08/15 03:43:35;;;;;;;2.97;1.50;;;;;;;;;;5029923;28;20038;-80
2022/08/15 03:46:21;;;;;;;3.97;2.40;;;;;;;;;;5030822;28;20033;-78
2022/08/15 03:49:07;;;;;;;2.67;1.60;;;;;;;;;;5031506;28;20585;-80
2022/08/15 03:51:54;;;;;;;2.78;1.67;;;;;;;;;;5017709;28;20049;-80
2022/08/15 03:54:40;;;;;;;10.45;1.77;;;;;;;;;;5017777;28;20045;-80
2022/08/15 03:57:25;;;;;;;3.22;1.50;;;;;;;;;;5031397;28;20041;-81
2022/08/15 04:00:13;;;;;;;5.82;2.05;;;;;;;;;;5029886;28;20052;-80
2022/08/15 04:03:03;;;;;;;3.35;2.00;;;;;;;;;;5029308;28;20439;-80
2022/08/15 04:05:52;;;;;;;4.30;2.13;;;;;;;;;;5016463;28;20040;-80
2022/08/15 04:08:38;;;;;;;3.95;1.88;;;;;;;;;;5029539;28;20037;-80
2022/08/15 04:11:25;;;;;;;4.72;1.67;;;;;;;;;;5018422;28;20191;-80
2022/08/15 04:14:10;;;;;;;3.72;1.92;;;;;;;;;;5017597;28;20416;-79
2022/08/15 04:16:56;;;;;;;3.08;1.67;;;;;;;;;;5029497;28;20551;-80
2022/08/15 04:19:42;;;;;;;5.85;1.73;;;;;;;;;;5029329;28;20117;-80
2022/08/15 04:22:36;;;;;;;3.90;1.70;;;;;;;;;;5004741;28;20511;-79
2022/08/15 04:25:27;;;;;;;3.72;1.70;;;;;;;;;;5015798;28;20034;-79
2022/08/15 04:28:14;;;;;;;4.13;1.83;;;;;;;;;;5030170;28;20045;-79
2022/08/15 04:31:00;;;;;;;4.40;1.90;;;;;;;;;;5030197;28;20419;-79
2022/08/15 04:33:47;;;;;;;3.45;1.60;;;;;;;;;;5031460;28;20069;-80
2022/08/15 04:36:33;;;;;;;2.78;1.70;;;;;;;;;;5018416;28;20041;-81
2022/08/15 04:39:20;;;;;;;4.38;2.08;;;;;;;;;;5018261;28;20678;-79
2022/08/15 04:42:06;;;;;;;3.17;2.10;;;;;;;;;;5018345;28;20136;-80
2022/08/15 04:44:52;;;;;;;4.45;2.00;;;;;;;;;;5004047;28;20080;-81
2022/08/15 04:47:38;;;;;;;3.60;1.95;;;;;;;;;;5015122;28;20187;-81
2022/08/15 04:50:24;;;;;;;4.15;2.40;;;;;;;;;;5028839;28;20038;-81
2022/08/15 04:53:11;;;;;;;5.55;2.20;;;;;;;;;;5016777;28;20049;-81
2022/08/15 04:55:57;;;;;;;4.15;2.00;;;;;;;;;;5015205;28;20401;-81
2022/08/15 04:58:42;;;;;;;6.68;2.30;;;;;;;;;;5003728;28;20464;-81
2022/08/15 05:01:28;;;;;;;5.15;2.30;;;;;;;;;;5016313;28;20119;-81
2022/08/15 05:04:15;;;;;;;4.45;2.22;;;;;;;;;;5028905;28;20132;-80
2022/08/15 05:07:00;;;;;;;5.70;2.10;;;;;;;;;;5028741;28;20503;-83
2022/08/15 05:09:47;;;;;;;6.93;2.30;;;;;;;;;;5016264;28;20049;-85
2022/08/15 05:12:34;;;;;;;4.18;2.17;;;;;;;;;;5029678;28;20037;-87
2022/08/15 05:15:21;;;;;;;5.68;2.03;;;;;;;;;;5015996;28;20909;-84
2022/08/15 05:18:07;;;;;;;3.85;2.00;;;;;;;;;;5016166;28;20060;-83
2022/08/15 05:20:53;;;;;;;7.18;2.30;;;;;;;;;;5028685;28;20072;-83
2022/08/15 05:23:39;;;;;;;3.90;1.73;;;;;;;;;;5016003;28;20045;-91
2022/08/15 05:26:25;;;;;;;4.15;2.13;;;;;;;;;;5029588;28;20037;-86
2022/08/15 05:29:12;;;;;;;5.43;2.28;;;;;;;;;;5016400;28;20114;-84
2022/08/15 05:31:59;;;;;;;3.00;1.52;;;;;;;;;;5015932;28;20424;-86
2022/08/15 05:34:47;;;;;;;4.38;2.03;;;;;;;;;;5031293;28;20099;-87
2022/08/15 05:37:33;;;;;;;4.88;2.28;;;;;;;;;;5033143;28;20045;-85
2022/08/15 05:40:23;;;;;;;3.55;2.22;;;;;;;;;;5033579;28;20585;-93
2022/08/15 05:43:11;;;;;;;3.35;1.85;;;;;;;;;;5034217;28;20034;-90
2022/08/15 05:46:05;;;;;;;3.55;1.65;;;;;;;;;;5020142;28;20521;-86
2022/08/15 05:49:04;;;;;;;3.10;2.10;;;;;;;;;;5020592;28;20041;-86
2022/08/15 05:52:21;;;;;;;2.75;2.10;;;;;;;;;;5019871;28;20049;-86
2022/08/15 05:55:10;;;;;;;2.47;1.75;;;;;;;;;;5032587;28;20034;-85
2022/08/15 05:58:05;;;;;;;4.07;1.73;;;;;;;;;;5032755;28;20432;-85
2022/08/15 06:01:16;;;;;;;3.45;1.98;;;;;;;;;;5033099;28;20045;-86
2022/08/15 06:04:09;;;;;;;4.22;1.92;;;;;;;;;;5033688;28;20033;-86
2022/08/15 06:06:55;;;;;;;5.22;2.90;;;;;;;;;;5032452;28;20037;-86
2022/08/15 06:09:48;;;;;;;3.33;1.80;;;;;;;;;;5019070;28;20048;-86
2022/08/15 06:12:38;;;;;;;3.60;1.92;;;;;;;;;;5020258;28;20029;-84
2022/08/15 06:15:28;;;;;;;2.83;2.03;;;;;;;;;;5018320;28;20052;-87
2022/08/15 06:18:15;;;;;;;4.35;2.33;;;;;;;;;;5031952;28;20048;-86
2022/08/15 06:21:07;;;;;;;3.22;2.00;;;;;;;;;;5032479;28;20049;-85
2022/08/15 06:24:02;;;;;;;5.88;2.20;;;;;;;;;;5032457;28;20083;-84
2022/08/15 06:26:57;;;;;;;3.33;1.73;;;;;;;;;;5032385;28;20133;-86
2022/08/15 06:30:07;;;;;;;4.57;2.17;;;;;;;;;;5019902;28;20033;-84
2022/08/15 06:33:12;;;;;;;4.40;1.80;;;;;;;;;;5021279;28;20076;-85
2022/08/15 06:36:04;;;;;;;3.95;2.05;;;;;;;;;;5031339;28;20087;-84
2022/08/15 06:38:53;;;;;;;;;;;;;;;;;;5032489;28;20076;-85
2022/08/15 06:41:58;;;;;;;4.63;2.20;;;;;;;;;;5033756;28;20303;-86
2022/08/15 06:44:47;;;;;;;4.90;2.88;;;;;;;;;;5031816;28;20037;-85
2022/08/15 06:47:34;;;;;;;3.47;1.48;;;;;;;;;;5005665;28;20487;-85
2022/08/15 06:50:23;;;;;;;3.40;2.53;;;;;;;;;;5030884;28;20041;-84
2022/08/15 06:53:34;;;;;;;5.40;2.65;;;;;;;;;;5036906;28;20124;-83
2022/08/15 06:56:28;;;;;;;5.60;2.83;;;;;;;;;;5027645;28;20034;-82
2022/08/15 06:59:25;;;;;;;5.72;2.33;;;;;;;;;;5033769;28;20569;-84
2022/08/15 07:02:43;;;;;;;5.35;2.33;;;;;;;;;;5030741;28;20049;-83
2022/08/15 07:05:34;;;;;;;5.93;2.67;;;;;;;;;;5031485;28;20112;-83
2022/08/15 07:08:26;;;;;;;5.60;2.35;;;;;;;;;;5018092;28;20519;-83
2022/08/15 07:11:27;;;;;;;6.22;2.15;;;;;;;;;;5032290;28;20040;-84
2022/08/15 07:14:19;;;;;;;5.85;2.70;;;;;;;;;;5018799;28;20033;-84
2022/08/15 07:17:12;;;;;;;7.32;2.92;;;;;;;;;;5018998;28;20045;-84
2022/08/15 07:19:58;;;;;;;9.77;3.10;;;;;;;;;;5030549;28;20419;-85
2022/08/15 07:22:43;;;;;;;4.72;2.42;;;;;;;;;;5006401;28;20037;-86
2022/08/15 07:25:32;;;;;;;6.30;2.97;;;;;;;;;;5031343;28;20037;-87
2022/08/15 07:28:20;;;;;;;8.10;3.45;;;;;;;;;;5019180;28;20091;-87
2022/08/15 07:31:28;;;;;;;4.60;2.88;;;;;;;;;;5032262;28;20038;-86
2022/08/15 07:34:22;;;;;;;4.30;2.58;;;;;;;;;;5007561;28;20040;-88
2022/08/15 07:37:09;;;;;;;4.32;2.38;;;;;;;;;;5007655;28;20046;-88
2022/08/15 07:40:20;;;;;;;5.15;3.17;;;;;;;;;;5031268;28;20045;-89
2022/08/15 07:43:28;;;;;;;3.85;3.03;;;;;;;;;;5018783;28;20136;-90
2022/08/15 07:46:23;;;;;;;4.35;2.33;;;;;;;;;;5031405;28;20030;-88
2022/08/15 07:49:18;;;;;;;5.38;2.95;;;;;;;;;;5032942;28;20046;-89
2022/08/15 07:52:23;;;;;;;5.78;2.92;;;;;;;;;;5018290;28;20133;-88
2022/08/15 07:55:19;;;;;;;4.00;2.67;;;;;;;;;;5030994;28;20037;-88
2022/08/15 07:58:16;;;;;;;5.30;2.63;;;;;;;;;;5020434;28;20416;-88
2022/08/15 08:01:08;;;;;;;4.38;2.58;;;;;;;;;;5031156;28;20050;-89
2022/08/15 08:04:28;;;;;;;3.80;2.65;;;;;;;;;;5031719;28;20084;-90
2022/08/15 08:07:30;;;;;;;4.57;2.58;;;;;;;;;;5017616;28;20419;-87
2022/08/15 08:10:25;;;;;;;6.63;2.72;;;;;;;;;;5019456;28;20110;-89
2022/08/15 08:13:17;;;;;;;5.78;2.67;;;;;;;;;;5030086;28;20080;-87
2022/08/15 08:16:55;;;;;;;4.35;2.78;;;;;;;;;;5031206;28;20048;-90
2022/08/15 08:19:44;;;;;;;4.53;2.67;;;;;;;;;;5004551;28;20124;-91
2022/08/15 08:22:46;;;;;;;3.30;2.25;;;;;;;;;;5030773;28;20550;-87
2022/08/15 08:25:41;;;;;;;4.10;2.57;;;;;;;;;;5018065;28;20040;-87
2022/08/15 08:28:53;;;;;;;6.82;4.38;;;;;;;;;;5029944;28;20068;-87
2022/08/15 08:32:12;;;;;;;6.85;4.00;;;;;;;;;;5027048;28;20099;-87
2022/08/15 08:35:33;;;;;;;7.68;4.10;;;;;;;;;;5033503;28;20412;-90
2022/08/15 08:38:26;;;;;;;8.48;6.60;;;;;;;;;;5024410;28;20065;-89
2022/08/15 08:41:34;;;;;;;7.38;4.97;;;;;;;;;;5032019;28;20575;-89
2022/08/15 08:44:42;;;;;;;4.72;3.47;;;;;;;;;;5030338;28;20037;-88
2022/08/15 08:47:44;;;;;;;7.65;3.55;;;;;;;;;;5043748;28;20116;-90
2022/08/15 08:50:52;;;;;;;8.35;6.80;;;;;;;;;;5054997;28;20540;-92
2022/08/15 08:53:46;;;;;;;6.28;4.03;;;;;;;;;;5071958;28;20716;-89
2022/08/15 08:56:36;;;;;;;7.47;3.72;;;;;;;;;;5021165;28;20046;-90
2022/08/15 08:59:33;;;;;;;7.00;3.88;;;;;;;;;;5018901;28;20029;-90
2022/08/15 09:03:09;;;;;;;70.40;63.40;;;;;;;;;;5006553;28;20381;-88
2022/08/15 09:05:58;;;;;;;13.18;7.30;;;;;;;;;;5056799;28;20148;-88
2022/08/15 09:08:51;;;;;;;7.78;3.97;;;;;;;;;;5006546;28;20045;-89
2022/08/15 09:11:37;;;;;;;11.45;4.38;;;;;;;;;;5009247;28;20045;-90
2022/08/15 09:14:28;;;;;;;4.65;2.95;;;;;;;;;;5046420;28;20132;-90
2022/08/15 09:17:14;;;;;;;5.07;3.40;;;;;;;;;;5026698;28;20044;-89
2022/08/15 09:20:13;;;;;;;6.57;4.05;;;;;;;;;;5032852;28;20037;-89
2022/08/15 09:22:59;;;;;;;5.93;3.00;;;;;;;;;;5060096;28;20040;-89
2022/08/15 09:26:08;;;;;;;5.88;2.95;;;;;;;;;;5046459;28;20028;-89
2022/08/15 09:29:24;;;;;;;5.28;3.50;;;;;;;;;;5061824;28;20033;-89
2022/08/15 09:32:56;;;;;;;7.25;3.55;;;;;;;;;;5061060;28;20041;-87
2022/08/15 09:36:11;;;;;;;6.50;4.30;;;;;;;;;;5075300;28;20047;-90
2022/08/15 09:39:15;;;;;;;5.85;3.60;;;;;;;;;;5065312;28;20044;-91
2022/08/15 09:42:18;;;;;;;5.68;3.53;;;;;;;;;;5074504;28;20047;-93
2022/08/15 09:45:04;;;;;;;5.22;3.03;;;;;;;;;;5059763;28;20034;-89
2022/08/15 09:48:16;;;;;;;6.65;3.53;;;;;;;;;;5036293;28;20099;-88
2022/08/15 09:51:25;;;;;;;8.73;3.33;;;;;;;;;;5034429;28;20487;-86
2022/08/15 09:54:18;;;;;;;5.07;3.00;;;;;;;;;;5041356;28;20090;-87
2022/08/15 09:57:21;;;;;;;6.13;3.17;;;;;;;;;;5020209;28;20073;-86
2022/08/15 10:00:16;;;;;;;5.85;3.65;;;;;;;;;;5028815;28;20483;-85
2022/08/15 10:03:07;;;;;;;7.63;2.92;;;;;;;;;;5047893;28;20585;-85
2022/08/15 10:06:03;;;;;;;5.07;2.97;;;;;;;;;;5033092;28;20049;-85
2022/08/15 10:08:52;;;;;;;5.45;3.15;;;;;;;;;;5022097;28;20522;-84
2022/08/15 10:11:41;;;;;;;6.38;3.55;;;;;;;;;;5033270;28;20488;-84
2022/08/15 10:14:39;;;;;;;7.57;3.38;;;;;;;;;;5032915;28;20033;-83
2022/08/15 10:17:37;;;;;;;9.15;3.28;;;;;;;;;;5007507;28;20178;-83
2022/08/15 10:20:18;;;;;;;6.82;3.28;;;;;;;;;;5025992;28;20113;-84
2022/08/15 10:22:59;;;;;;;4.40;2.63;;;;;;;;;;5027832;28;20037;-85
2022/08/15 10:25:24;;;;;;;5.30;3.10;;;;;;;;;;5036315;28;20450;-92
2022/08/15 10:28:05;;;;;;;5.72;3.00;;;;;;;;;;5033496;28;20307;-89
2022/08/15 10:30:33;;;;;;;4.22;2.65;;;;;;;;;;5002096;28;20494;-89
2022/08/15 10:33:00;;;;;;;5.25;2.80;;;;;;;;;;5000833;28;20151;-88
2022/08/15 10:35:45;;;;;;;5.07;2.72;;;;;;;;;;5017330;28;20038;-86
2022/08/15 10:38:14;;;;;;;4.30;2.92;;;;;;;;;;5001507;28;20570;-89
2022/08/15 10:40:51;;;;;;;4.18;2.85;;;;;;;;;;5000907;28;20285;-85
2022/08/15 10:43:21;;;;;;;4.95;3.65;;;;;;;;;;5001042;28;20033;-87
2022/08/15 10:45:55;;;;;;;4.22;2.65;;;;;;;;;;5017175;28;20091;-87
2022/08/15 10:48:43;;;;;;;7.95;3.33;;;;;;;;;;5001538;28;20033;-86
2022/08/15 10:51:18;;;;;;;4.47;2.78;;;;;;;;;;5033290;28;20037;-87
2022/08/15 10:54:06;;;;;;;4.85;3.08;;;;;;;;;;5035439;28;20043;-88
2022/08/15 10:56:37;;;;;;;5.72;2.80;;;;;;;;;;5036183;28;20048;-87
2022/08/15 10:59:33;;;;;;;4.13;2.30;;;;;;;;;;5004520;28;20033;-86
2022/08/15 11:02:31;;;;;;;3.70;2.85;;;;;;;;;;4999701;28;20060;-86
2022/08/15 11:05:09;;;;;;;6.35;2.70;;;;;;;;;;5030817;28;20042;-86
2022/08/15 11:07:37;;;;;;;4.18;2.60;;;;;;;;;;4985067;28;20396;-90
2022/08/15 11:10:08;;;;;;;5.82;3.15;;;;;;;;;;4984465;28;20106;-85
2022/08/15 11:12:36;;;;;;;4.00;2.92;;;;;;;;;;4984144;28;20172;-85
2022/08/15 11:15:09;;;;;;;5.88;3.35;;;;;;;;;;5032624;28;20037;-86
2022/08/15 11:17:37;;;;;;;3.97;2.95;;;;;;;;;;4986173;28;20033;-87
2022/08/15 11:20:12;;;;;;;5.35;3.03;;;;;;;;;;5000187;28;20120;-87
2022/08/15 11:22:58;;;;;;;4.50;2.80;;;;;;;;;;5017701;28;20029;-88
2022/08/15 11:25:39;;;;;;;4.47;2.67;;;;;;;;;;5017159;28;20025;-88
2022/08/15 11:28:13;;;;;;;5.00;3.45;;;;;;;;;;4984586;28;20025;-89
2022/08/15 11:30:40;;;;;;;6.82;4.15;;;;;;;;;;5016838;28;20068;-88
2022/08/15 11:33:34;;;;;;;4.47;3.28;;;;;;;;;;4983035;28;20036;-88
2022/08/15 11:36:10;;;;;;;5.88;3.17;;;;;;;;;;5033022;28;20033;-89
2022/08/15 11:38:36;;;;;;;4.03;2.85;;;;;;;;;;5000497;28;20096;-89
2022/08/15 11:41:01;;;;;;;5.93;3.17;;;;;;;;;;4984004;28;20041;-87
2022/08/15 11:43:27;;;;;;;5.10;3.15;;;;;;;;;;4983568;28;20506;-87
2022/08/15 11:45:56;;;;;;;4.70;2.88;;;;;;;;;;4984060;28;20029;-88
2022/08/15 11:48:33;;;;;;;4.80;3.30;;;;;;;;;;4983894;28;20041;-88
2022/08/15 11:51:10;;;;;;;4.00;3.08;;;;;;;;;;4999864;28;20029;-88
2022/08/15 11:53:44;;;;;;;4.03;2.90;;;;;;;;;;5016100;28;20089;-88
2022/08/15 11:56:11;;;;;;;5.43;3.35;;;;;;;;;;4984459;28;20491;-88
2022/08/15 11:58:38;;;;;;;4.13;2.67;;;;;;;;;;4983807;28;20037;-88
2022/08/15 12:01:30;;;;;;;6.57;3.67;;;;;;;;;;4983798;28;20029;-88
2022/08/15 12:04:04;;;;;;;4.05;3.13;;;;;;;;;;5032885;28;20041;-88
2022/08/15 12:06:38;;;;;;;7.90;3.30;;;;;;;;;;5000172;28;20105;-88
2022/08/15 12:09:13;;;;;;;4.97;3.22;;;;;;;;;;4999879;28;20052;-89
2022/08/15 12:11:45;;;;;;;6.25;3.03;;;;;;;;;;4983432;28;20037;-89
2022/08/15 12:14:24;;;;;;;6.30;3.53;;;;;;;;;;5000061;28;20073;-89
2022/08/15 12:16:55;;;;;;;4.63;3.03;;;;;;;;;;4984629;28;20075;-89
2022/08/15 12:19:46;;;;;;;7.00;3.42;;;;;;;;;;5015664;28;20037;-89
2022/08/15 12:22:29;;;;;;;7.38;3.47;;;;;;;;;;5048607;28;20495;-89
2022/08/15 12:24:55;;;;;;;4.75;3.42;;;;;;;;;;4984537;28;20488;-89
2022/08/15 12:27:22;;;;;;;4.40;3.42;;;;;;;;;;4983457;28;20565;-89
2022/08/15 12:29:49;;;;;;;3.72;3.33;;;;;;;;;;4983352;28;20033;-89
2022/08/15 12:32:16;;;;;;;7.60;3.50;;;;;;;;;;4983053;28;20029;-89
2022/08/15 12:34:55;;;;;;;5.05;3.40;;;;;;;;;;4983013;28;20037;-87
2022/08/15 12:37:25;;;;;;;4.43;3.42;;;;;;;;;;4998719;28;20041;-88
2022/08/15 12:39:55;;;;;;;7.72;3.20;;;;;;;;;;5015304;28;20099;-89
2022/08/15 12:42:32;;;;;;;6.60;3.47;;;;;;;;;;5031799;28;20439;-88
2022/08/15 12:45:10;;;;;;;13.63;10.15;;;;;;;;;;4982899;28;20040;-89
2022/08/15 12:47:35;;;;;;;12.40;9.32;;;;;;;;;;4998099;28;20032;-85
2022/08/15 12:50:04;;;;;;;10.05;7.10;;;;;;;;;;5014253;28;20037;-85
2022/08/15 12:52:29;;;;;;;7.95;5.43;;;;;;;;;;4998184;28;20033;-84
2022/08/15 12:54:57;;;;;;;7.38;4.40;;;;;;;;;;4980833;28;20039;-85
2022/08/15 12:57:26;;;;;;;6.72;3.90;;;;;;;;;;5014784;28;20038;-85
2022/08/15 12:59:52;;;;;;;6.57;3.40;;;;;;;;;;4998700;28;20167;-86
2022/08/15 13:02:19;;;;;;;4.97;3.67;;;;;;;;;;4998146;28;20037;-85
2022/08/15 13:04:52;;;;;;;4.55;3.17;;;;;;;;;;4981828;28;20033;-81
2022/08/15 13:07:18;;;;;;;6.50;3.92;;;;;;;;;;4982486;28;20036;-84
2022/08/15 13:09:45;;;;;;;9.13;3.97;;;;;;;;;;4981611;28;20033;-86
2022/08/15 13:12:11;;;;;;;10.23;5.00;;;;;;;;;;4981364;28;20041;-84
2022/08/15 13:14:36;;;;;;;7.20;4.28;;;;;;;;;;4981132;28;20037;-84
2022/08/15 13:17:02;;;;;;;11.48;4.32;;;;;;;;;;4997626;28;20065;-84
2022/08/15 13:23:34;;;;;;;8.77;4.05;;;;;;;;;;5006813;28;20415;-84
2022/08/15 13:25:02;;;;;;;7.28;4.45;;;;;;;;;;5016377;28;20045;-84
2022/08/15 13:27:29;;;;;;;5.88;3.92;;;;;;;;;;4997293;28;20037;-84
2022/08/15 13:29:55;;;;;;;4.95;4.07;;;;;;;;;;4980967;28;20038;-84
2022/08/15 13:32:21;;;;;;;7.25;4.13;;;;;;;;;;4997638;28;20079;-83
2022/08/15 13:34:46;;;;;;;4.85;3.53;;;;;;;;;;4997486;28;20123;-83
2022/08/15 13:37:12;;;;;;;5.35;3.40;;;;;;;;;;4997485;28;20030;-83
2022/08/15 13:39:37;;;;;;;6.47;3.67;;;;;;;;;;5013843;28;20411;-84
2022/08/15 13:42:03;;;;;;;3.72;3.03;;;;;;;;;;4981140;28;20090;-84
2022/08/15 13:44:31;;;;;;;5.63;3.33;;;;;;;;;;4996962;28;20036;-84
2022/08/15 13:46:57;;;;;;;4.07;3.25;;;;;;;;;;4998487;28;20064;-84
2022/08/15 13:49:23;;;;;;;5.03;3.53;;;;;;;;;;4997366;28;20041;-84
2022/08/15 13:51:51;;;;;;;4.47;2.95;;;;;;;;;;4997300;28;20044;-84
2022/08/15 13:54:18;;;;;;;7.22;3.53;;;;;;;;;;4997011;28;20037;-82
2022/08/15 13:56:43;;;;;;;5.95;3.70;;;;;;;;;;4987960;28;20384;-83
2022/08/15 13:59:09;;;;;;;6.45;3.85;;;;;;;;;;5024396;28;20064;-82
2022/08/15 14:01:35;;;;;;;7.22;3.65;;;;;;;;;;5012037;28;20491;-82
2022/08/15 14:04:37;;;;;;;7.00;4.22;;;;;;;;;;5024667;28;20033;-82
2022/08/15 14:07:04;;;;;;;5.80;3.40;;;;;;;;;;5057147;28;20064;-82
2022/08/15 14:09:30;;;;;;;7.60;3.67;;;;;;;;;;4990103;28;20451;-83
2022/08/15 14:11:56;;;;;;;7.57;4.63;;;;;;;;;;4998226;28;20192;-85
2022/08/15 14:14:27;;;;;;;7.10;3.88;;;;;;;;;;5008132;28;20039;-84
2022/08/15 14:16:53;;;;;;;6.88;3.65;;;;;;;;;;4985990;28;20037;-86
2022/08/15 14:19:19;;;;;;;7.05;3.97;;;;;;;;;;5032431;28;20043;-82
2022/08/15 14:21:45;;;;;;;7.53;3.92;;;;;;;;;;5024983;28;20040;-84
2022/08/15 14:24:10;;;;;;;7.00;3.67;;;;;;;;;;5005583;28;20040;-85
2022/08/15 14:26:38;;;;;;;6.70;3.60;;;;;;;;;;5000379;28;20116;-84
2022/08/15 14:29:09;;;;;;;5.68;3.53;;;;;;;;;;4984528;28;20037;-83
2022/08/15 14:31:34;;;;;;;5.75;3.42;;;;;;;;;;4984794;28;20119;-85
2022/08/15 14:34:00;;;;;;;4.78;3.22;;;;;;;;;;4985705;28;20052;-85
2022/08/15 14:36:27;;;;;;;5.03;3.60;;;;;;;;;;4985597;28;20037;-84
2022/08/15 14:38:57;;;;;;;4.82;3.42;;;;;;;;;;5017269;28;20022;-84
2022/08/15 14:41:23;;;;;;;6.70;3.80;;;;;;;;;;5001093;28;20034;-85
2022/08/15 14:43:48;;;;;;;8.32;4.47;;;;;;;;;;5000630;28;20101;-85
2022/08/15 14:46:14;;;;;;;5.63;3.58;;;;;;;;;;5000768;28;20069;-86
2022/08/15 14:48:43;;;;;;;5.38;3.45;;;;;;;;;;5000429;28;20048;-84
2022/08/15 14:51:13;;;;;;;5.22;3.38;;;;;;;;;;5016077;28;20041;-86
2022/08/15 14:53:42;;;;;;;6.43;3.20;;;;;;;;;;5016509;28;20041;-85
2022/08/15 14:56:09;;;;;;;3.95;3.10;;;;;;;;;;5000930;28;20065;-86
2022/08/15 14:58:37;;;;;;;4.82;3.15;;;;;;;;;;5016660;28;20563;-86
2022/08/15 15:01:04;;;;;;;4.30;3.58;;;;;;;;;;5001528;28;20103;-86
2022/08/15 15:03:31;;;;;;;6.03;3.72;;;;;;;;;;4984132;28;20079;-87
2022/08/15 15:05:58;;;;;;;4.78;2.90;;;;;;;;;;4985826;28;20041;-86
2022/08/15 15:08:28;;;;;;;5.00;3.17;;;;;;;;;;4999960;28;20029;-87
2022/08/15 15:10:55;;;;;;;5.57;3.30;;;;;;;;;;5000801;28;20036;-88
2022/08/15 15:13:23;;;;;;;6.05;3.00;;;;;;;;;;5004374;28;20022;-87
2022/08/15 15:15:51;;;;;;;4.63;2.83;;;;;;;;;;4999644;28;20096;-87
2022/08/15 15:18:21;;;;;;;5.72;3.22;;;;;;;;;;4999400;28;20053;-86
2022/08/15 15:20:47;;;;;;;5.00;3.00;;;;;;;;;;5000370;28;20046;-87
2022/08/15 15:23:14;;;;;;;5.03;3.05;;;;;;;;;;5000662;28;20132;-88
2022/08/15 15:25:42;;;;;;;4.60;3.25;;;;;;;;;;5002630;28;20034;-88
2022/08/15 15:28:11;;;;;;;5.78;3.05;;;;;;;;;;5000699;28;20029;-88
2022/08/15 15:30:37;;;;;;;4.53;3.40;;;;;;;;;;5014437;28;20037;-87
2022/08/15 15:33:03;;;;;;;4.88;3.05;;;;;;;;;;5017207;28;20033;-88
2022/08/15 15:35:29;;;;;;;3.97;2.85;;;;;;;;;;5015617;28;20028;-88
2022/08/15 15:37:55;;;;;;;4.57;3.10;;;;;;;;;;5015677;28;20041;-87
2022/08/15 15:40:23;;;;;;;5.85;3.10;;;;;;;;;;5002443;28;20032;-85
2022/08/15 15:42:49;;;;;;;3.70;2.95;;;;;;;;;;5019015;28;20040;-86
2022/08/15 15:45:14;;;;;;;4.13;2.50;;;;;;;;;;5018887;28;20394;-87
2022/08/15 15:47:44;;;;;;;4.35;2.55;;;;;;;;;;5002832;28;20107;-88
2022/08/15 15:50:12;;;;;;;4.03;3.13;;;;;;;;;;5019195;28;20025;-87
2022/08/15 15:52:39;;;;;;;5.45;3.25;;;;;;;;;;5003088;28;20086;-88
2022/08/15 15:55:05;;;;;;;5.15;2.95;;;;;;;;;;5018731;28;20052;-88
2022/08/15 15:57:30;;;;;;;5.80;2.63;;;;;;;;;;5003079;28;20037;-88
2022/08/15 15:59:56;;;;;;;4.28;2.83;;;;;;;;;;5002734;28;20060;-86
2022/08/15 16:02:22;;;;;;;5.32;3.00;;;;;;;;;;5002601;28;20048;-86
2022/08/15 16:04:48;;;;;;;6.65;3.17;;;;;;;;;;5018309;28;20033;-86
2022/08/15 16:07:14;;;;;;;4.03;2.83;;;;;;;;;;5018776;28;20063;-87
2022/08/15 16:09:41;;;;;;;4.78;2.70;;;;;;;;;;5018833;28;20045;-86
2022/08/15 16:12:17;;;;;;;4.70;2.88;;;;;;;;;;5002120;28;20170;-86
2022/08/15 16:15:04;;;;;;;6.45;3.13;;;;;;;;;;5001000;28;20457;-87
2022/08/15 16:17:44;;;;;;;7.63;2.88;;;;;;;;;;5024015;28;20025;-86
2022/08/15 16:20:20;;;;;;;4.80;3.33;;;;;;;;;;5014777;28;20033;-86
2022/08/15 16:22:55;;;;;;;5.65;3.47;;;;;;;;;;5014973;28;20064;-85
2022/08/15 16:25:33;;;;;;;8.35;5.88;;;;;;;;;;5015809;28;20159;-85